»·PEaware :: N282ND KEMT-KLGB

N282ND :: KEMT-KLGB

FLIGHT INFORMATION

Flight Status: Arrived
Operator: Privately registered:
United States
More flights under this callsign
Pilot: Patrick P. (19681)
Aircraft: PIPER PA-28R-201 ARROW
(P28R)
More flights by this aircraft type
Origin: KEMT El Monte
United States
Destination: KLGB Long Beach
United States
More flights between these airports :: More routes between these airports
Route: PDZ PDZ270/016 DOWDD V394 SLI
File this flight plan on PilotEdge
Remarks: TEC route ONTP9
Altitude:
(Current/Filed)
4,000ft
Speed:
(Current/Filed)
120kts
Departed: 19-Sep-22 05:23 PM
Arrived: 19-Sep-22 05:43 PM
Distance/Time
Traveled:
17nm/0:19
Distance/Time
To Go:
Arrived

Flight Plot

Page will automatically refresh every two minutes.

Flight plan parsing failed; only flown route is shown


Map Options




Map Legend


Flown Route
Filed Route
Departure Airport
Arrival Airport
Navaid (VOR, NDB)
Fix

Horizontal Profiles

Position Reports

Time Latitude Longitude Heading Altitude Ground
Speed
19-Sep-22 16:58 34.086659 -118.032338 25 296ft 0kts
19-Sep-22 16:59 34.086659 -118.032338 25 296ft 0kts
19-Sep-22 17:00 34.086659 -118.032338 25 296ft 0kts
19-Sep-22 17:02 34.086659 -118.032338 25 296ft 0kts
19-Sep-22 17:03 34.086659 -118.032338 25 296ft 0kts
19-Sep-22 17:04 34.086659 -118.032338 25 296ft 0kts
19-Sep-22 17:05 34.086659 -118.032338 25 296ft 0kts
19-Sep-22 17:06 34.086659 -118.032338 25 296ft 0kts
19-Sep-22 17:07 34.086659 -118.032338 25 296ft 0kts
19-Sep-22 17:08 34.086659 -118.032338 25 296ft 0kts
19-Sep-22 17:09 34.086659 -118.032338 25 296ft 0kts
19-Sep-22 17:10 34.086659 -118.032338 25 296ft 0kts
19-Sep-22 17:11 34.086659 -118.032338 25 296ft 0kts
19-Sep-22 17:12 34.086659 -118.032338 25 296ft 0kts
19-Sep-22 17:13 34.086659 -118.032338 25 296ft 0kts
19-Sep-22 17:14 34.086659 -118.032338 25 296ft 0kts
19-Sep-22 17:15 34.086659 -118.032338 25 296ft 0kts
19-Sep-22 17:16 34.086659 -118.032338 25 296ft 0kts
19-Sep-22 17:17 34.087131 -118.033176 295 296ft 12kts
19-Sep-22 17:18 34.090767 -118.031402 262 296ft 0kts
19-Sep-22 17:19 34.090760 -118.031428 253 296ft 0kts
19-Sep-22 17:20 34.090760 -118.031428 253 296ft 0kts
19-Sep-22 17:21 34.090760 -118.031428 253 296ft 0kts
19-Sep-22 17:22 34.090760 -118.031428 253 296ft 0kts
19-Sep-22 17:23 34.087300 -118.034116 206 315ft 74kts
19-Sep-22 17:24 34.064127 -118.047247 205 1293ft 96kts
19-Sep-22 17:25 34.046738 -118.033693 79 2174ft 110kts
19-Sep-22 17:26 34.053003 -117.996635 79 3012ft 114kts
19-Sep-22 17:27 34.058517 -117.958848 85 3788ft 112kts
19-Sep-22 17:28 34.046556 -117.921411 119 4025ft 126kts
19-Sep-22 17:28 34.030707 -117.890405 136 4028ft 131kts
19-Sep-22 17:29 34.004295 -117.859603 139 4026ft 130kts
19-Sep-22 17:31 33.968979 -117.842541 204 4011ft 124kts
19-Sep-22 17:32 33.936364 -117.858073 205 4005ft 125kts
19-Sep-22 17:33 33.903257 -117.872217 197 3978ft 127kts
19-Sep-22 17:33 33.875517 -117.883851 217 3971ft 126kts
19-Sep-22 17:34 33.850765 -117.914473 230 3560ft 127kts
19-Sep-22 17:35 33.825537 -117.945377 226 3047ft 129kts
19-Sep-22 17:37 33.800220 -117.983639 247 2599ft 124kts
19-Sep-22 17:37 33.789227 -118.015153 246 2196ft 120kts
19-Sep-22 17:38 33.782686 -118.054863 263 1741ft 122kts
19-Sep-22 17:39 33.782874 -118.093742 282 1031ft 106kts
19-Sep-22 17:40 33.793134 -118.121955 308 565ft 89kts
19-Sep-22 17:41 33.810282 -118.142230 311 71ft 62kts
19-Sep-22 17:42 33.814927 -118.149347 270 46ft 0kts
19-Sep-22 17:43 33.814952 -118.149770 286 46ft 4kts
19-Sep-22 17:44 33.817374 -118.152726 314 46ft 22kts
19-Sep-22 17:45 33.818616 -118.154232 315 46ft 18kts
19-Sep-22 17:46 33.819365 -118.155197 135 46ft 7kts
19-Sep-22 17:47 33.815863 -118.150893 133 46ft 9kts
19-Sep-22 17:48 33.813218 -118.148704 218 46ft 13kts
19-Sep-22 17:49 33.812389 -118.153449 168 46ft 0kts
19-Sep-22 17:50 33.812389 -118.153449 168 46ft 0kts
19-Sep-22 17:51 33.812389 -118.153449 168 46ft 0kts
19-Sep-22 17:52 33.812389 -118.153449 168 46ft 0kts
19-Sep-22 17:53 33.812389 -118.153449 168 46ft 0kts
19-Sep-22 17:54 33.812389 -118.153449 168 46ft 0kts

Navigation Log

Ident Type
Flight plan parsing failed, navigation log unavailable